Time;durP1;ratioP1;P1;durP2;ratioP2;P2;SDS_P1;SDS_P2;PMS_P1;PMS_P2;Temp;Humidity;BMP_temperature;BMP_pressure;BME280_temperature;BME280_humidity;BME280_pressure;Samples;Min_cycle;Max_cycle;Signal;HPM_P1;HPM_P2
2022/08/29 00:01:03;;;;;;;;;1.50;1.50;;;;;22.96;39.58;101348.91;5002500;28;45460;-68
2022/08/29 00:03:29;;;;;;;;;1.75;1.75;;;;;22.82;39.60;101350.81;5005322;28;46067;-68
2022/08/29 00:05:54;;;;;;;;;1.25;1.25;;;;;22.83;40.02;101338.06;5007888;28;45234;-68
2022/08/29 00:08:19;;;;;;;;;2.00;1.00;;;;;22.83;39.30;101355.25;5001412;28;45293;-68
2022/08/29 00:10:45;;;;;;;;;2.00;2.00;;;;;22.81;39.96;101350.94;5018004;28;45349;-68
2022/08/29 00:13:13;;;;;;;;;1.00;1.00;;;;;22.76;39.81;101343.97;4998978;28;48103;-68
2022/08/29 00:15:40;;;;;;;;;1.25;1.25;;;;;22.72;40.00;101338.84;5015757;28;45893;-68
2022/08/29 00:18:06;;;;;;;;;1.00;1.00;;;;;22.73;39.99;101348.78;5020703;28;45481;-68
2022/08/29 00:20:35;;;;;;;;;2.50;2.00;;;;;22.74;39.80;101345.94;5019434;28;45447;-68
2022/08/29 00:23:03;;;;;;;;;3.75;1.00;;;;;22.67;40.11;101332.88;5013489;28;45320;-68
2022/08/29 00:25:29;;;;;;;;;3.00;3.00;;;;;22.69;39.54;101344.56;5008968;28;45514;-68
2022/08/29 00:27:54;;;;;;;;;2.25;1.00;;;;;22.62;40.13;101333.25;5020296;28;45333;-68
2022/08/29 00:30:21;;;;;;;;;1.00;1.00;;;;;22.60;40.40;101329.75;5014570;28;46565;-68
2022/08/29 00:32:46;;;;;;;;;3.00;2.00;;;;;22.64;40.40;101341.31;5019033;28;45436;-68
2022/08/29 00:35:17;;;;;;;;;1.75;1.75;;;;;22.62;39.98;101338.69;5001715;28;45146;-68
2022/08/29 00:37:42;;;;;;;;;2.75;1.25;;;;;22.55;39.79;101329.22;5001290;28;45250;-68
2022/08/29 00:40:12;;;;;;;;;2.00;2.00;;;;;22.58;40.01;101339.88;5019393;28;45411;-68
2022/08/29 00:42:38;;;;;;;;;1.00;1.00;;;;;22.53;40.34;101340.22;5020030;28;45597;-68
2022/08/29 00:45:06;;;;;;;;;1.25;1.25;;;;;22.48;40.42;101333.38;5005205;28;45556;-68
2022/08/29 00:47:37;;;;;;;;;4.50;2.00;;;;;22.48;40.44;101338.81;5019695;28;45324;-68
2022/08/29 00:50:07;;;;;;;;;0.75;0.75;;;;;22.50;40.49;101339.56;5020550;28;45394;-68
2022/08/29 00:52:41;;;;;;;;;1.00;1.00;;;;;22.48;39.90;101336.97;5003796;28;47345;-68
2022/08/29 00:55:12;;;;;;;;;2.00;2.00;;;;;22.35;40.21;101326.13;5020365;28;45515;-68
2022/08/29 00:57:41;;;;;;;;;2.75;2.00;;;;;22.42;40.53;101350.16;5005277;28;45320;-68
2022/08/29 01:00:08;;;;;;;;;2.00;2.00;;;;;22.34;40.85;101334.41;4992385;28;45392;-68
2022/08/29 01:02:34;;;;;;;;;1.75;1.00;;;;;22.37;40.28;101343.19;4992590;28;45425;-68
2022/08/29 01:04:59;;;;;;;;;1.00;1.00;;;;;22.32;40.28;101342.66;5012884;28;45346;-68
2022/08/29 01:07:25;;;;;;;;;1.50;1.00;;;;;22.32;40.72;101342.66;4999463;28;45455;-68
2022/08/29 01:09:51;;;;;;;;;1.25;1.25;;;;;22.35;40.63;101350.63;5003209;28;45528;-68
2022/08/29 01:12:18;;;;;;;;;2.00;2.00;;;;;22.34;40.70;101343.41;5014941;28;46232;-68
2022/08/29 01:14:52;;;;;;;;;1.50;1.50;;;;;22.37;40.70;101343.19;5018676;28;45365;-68
2022/08/29 01:17:26;;;;;;;;;1.00;1.00;;;;;22.35;40.92;101336.13;5016611;28;45426;-68
2022/08/29 01:19:51;;;;;;;;;1.00;1.00;;;;;22.39;40.55;101334.94;5008945;28;45543;-68
2022/08/29 01:22:33;;;;;;;;;0.00;0.00;;;;;22.40;40.56;101336.66;5007415;28;47172;-68
2022/08/29 01:25:02;;;;;;;;;2.00;2.00;;;;;22.39;40.24;101326.78;5012313;28;45308;-68
2022/08/29 01:27:33;;;;;;;;;0.50;0.50;;;;;22.36;40.82;101319.69;5005498;28;45682;-68
2022/08/29 01:29:58;;;;;;;;;1.50;1.00;;;;;22.32;40.86;101322.75;4992345;28;45455;-68
2022/08/29 01:32:24;;;;;;;;;4.00;2.50;;;;;22.31;40.65;101329.19;5015199;28;46853;-68
2022/08/29 01:34:51;;;;;;;;;2.00;0.50;;;;;22.29;40.67;101323.00;5015048;28;45439;-68
2022/08/29 01:37:16;;;;;;;;;1.50;1.50;;;;;22.27;40.99;101320.34;5006275;28;45378;-68
2022/08/29 01:39:43;;;;;;;;;1.00;1.00;;;;;22.29;41.02;101332.00;5018315;28;45174;-68
2022/08/29 01:42:19;;;;;;;;;2.75;2.00;;;;;22.27;40.94;101331.22;5003305;28;47732;-68
2022/08/29 01:44:57;;;;;;;;;1.00;1.00;;;;;22.26;41.02;101325.91;5010406;28;45326;-68
2022/08/29 01:47:33;;;;;;;;;1.75;1.75;;;;;22.24;40.55;101323.28;5019603;28;45423;-68
2022/08/29 01:49:58;;;;;;;;;1.00;1.00;;;;;22.21;40.88;101324.38;4991933;28;45779;-68
2022/08/29 01:52:24;;;;;;;;;1.25;1.25;;;;;22.14;40.99;101317.63;5018375;28;45433;-68
2022/08/29 01:54:49;;;;;;;;;1.00;1.00;;;;;22.17;40.59;101320.16;5018878;28;45359;-68
2022/08/29 01:57:16;;;;;;;;;1.25;1.25;;;;;22.20;41.07;101325.38;5017455;28;45360;-68
2022/08/29 01:59:42;;;;;;;;;1.50;1.50;;;;;22.13;41.06;101313.16;4988775;28;47056;-68
2022/08/29 02:02:19;;;;;;;;;1.00;1.00;;;;;22.18;40.78;101319.13;4992319;28;45345;-68
2022/08/29 02:04:47;;;;;;;;;1.75;1.25;;;;;22.07;40.92;101313.63;4987428;28;45536;-68
2022/08/29 02:07:17;;;;;;;;;1.00;1.00;;;;;22.07;40.77;101315.47;4998150;28;45324;-68
2022/08/29 02:09:43;;;;;;;;;1.00;1.00;;;;;22.14;41.04;101317.63;5017615;28;45336;-68
2022/08/29 02:12:09;;;;;;;;;1.00;1.00;;;;;22.13;40.78;101315.03;5008023;28;45176;-68
2022/08/29 02:14:35;;;;;;;;;3.00;0.00;;;;;22.13;41.04;101318.59;5013841;28;45297;-68
2022/08/29 02:17:01;;;;;;;;;1.00;1.00;;;;;22.07;40.68;101310.91;5016516;28;45237;-68
2022/08/29 02:19:27;;;;;;;;;1.25;1.25;;;;;22.09;40.88;101308.09;5001179;28;45370;-68
2022/08/29 02:21:52;;;;;;;;;0.75;0.25;;;;;22.05;41.17;101315.56;5016309;28;48289;-68
2022/08/29 02:24:18;;;;;;;;;1.00;1.00;;;;;22.10;41.56;101316.13;5017708;28;45435;-68
2022/08/29 02:26:43;;;;;;;;;2.00;1.00;;;;;22.04;40.93;101307.56;5017029;28;45293;-68
2022/08/29 02:29:11;;;;;;;;;1.00;1.00;;;;;22.14;41.46;101309.47;5019012;28;45458;-68
2022/08/29 02:31:38;;;;;;;;;2.00;1.00;;;;;22.15;41.56;101313.06;5019401;28;45356;-68
2022/08/29 02:34:04;;;;;;;;;1.00;1.00;;;;;22.16;41.48;101312.94;5007293;28;45432;-68
2022/08/29 02:36:29;;;;;;;;;1.00;1.00;;;;;22.14;40.97;101314.06;5005947;28;45475;-68
2022/08/29 02:38:55;;;;;;;;;1.00;1.00;;;;;22.12;41.38;101311.44;5008052;28;48264;-68
2022/08/29 02:41:20;;;;;;;;;3.50;1.00;;;;;22.12;41.18;101311.44;5006126;28;46043;-68
2022/08/29 02:43:45;;;;;;;;;2.50;1.00;;;;;22.04;41.02;101297.53;5021206;28;45363;-68
2022/08/29 02:46:17;;;;;;;;;1.00;1.00;;;;;22.02;41.45;101299.50;5020086;28;45424;-68
2022/08/29 02:48:43;;;;;;;;;2.50;1.00;;;;;22.02;41.49;101304.94;5020241;28;45305;-68
2022/08/29 02:51:09;;;;;;;;;3.00;2.00;;;;;22.05;41.14;101310.13;5015819;28;45343;-68
2022/08/29 02:53:35;;;;;;;;;1.00;1.00;;;;;22.06;41.35;101309.16;5019573;28;45571;-68
2022/08/29 02:56:01;;;;;;;;;0.25;0.25;;;;;22.06;41.73;101316.47;5017304;28;45332;-68
2022/08/29 02:58:26;;;;;;;;;1.00;1.00;;;;;22.06;41.07;101301.00;5002623;28;45396;-68
2022/08/29 03:00:52;;;;;;;;;2.00;1.00;;;;;22.08;41.77;101309.91;4997816;28;45418;-68
2022/08/29 03:03:19;;;;;;;;;1.00;1.00;;;;;22.06;41.83;101303.72;5003480;28;45475;-68
2022/08/29 03:05:46;;;;;;;;;1.25;1.00;;;;;22.08;42.13;101301.75;5011124;28;45524;-68
2022/08/29 03:08:15;;;;;;;;;0.00;0.00;;;;;22.08;41.48;101304.47;5018258;28;45523;-68
2022/08/29 03:10:42;;;;;;;;;1.00;1.00;;;;;21.99;41.42;101280.69;5006537;28;46306;-68
2022/08/29 03:13:08;;;;;;;;;3.00;1.00;;;;;22.11;41.57;101297.97;5006918;28;45348;-68
2022/08/29 03:15:33;;;;;;;;;1.00;1.00;;;;;22.07;41.70;101302.75;5018454;28;45320;-68
2022/08/29 03:18:00;;;;;;;;;3.25;2.00;;;;;22.11;41.50;101303.41;5015862;28;45934;-68
2022/08/29 03:20:25;;;;;;;;;1.00;1.00;;;;;22.08;41.37;101304.47;5019925;28;45428;-69
2022/08/29 03:22:52;;;;;;;;;1.50;0.50;;;;;22.06;41.57;101306.44;5013730;28;45438;-69
2022/08/29 03:25:20;;;;;;;;;3.75;1.00;;;;;22.04;41.70;101299.41;5017300;28;45294;-69
2022/08/29 03:27:45;;;;;;;;;1.00;1.00;;;;;22.01;42.07;101300.47;5001845;28;45541;-69
2022/08/29 03:30:13;;;;;;;;;0.75;0.25;;;;;22.00;41.70;101296.91;5016855;28;45960;-68
2022/08/29 03:32:39;;;;;;;;;2.50;1.00;;;;;22.00;41.45;101299.63;5019373;28;45432;-69
2022/08/29 03:35:06;;;;;;;;;0.00;0.00;;;;;21.97;41.73;101296.25;5008780;28;45413;-68
2022/08/29 03:37:32;;;;;;;;;0.25;0.25;;;;;21.90;42.15;101281.34;5009575;28;45408;-68
2022/08/29 03:39:57;;;;;;;;;1.00;1.00;;;;;21.91;42.04;101286.66;5005368;28;45464;-68
2022/08/29 03:42:23;;;;;;;;;1.00;1.00;;;;;21.88;41.58;101288.75;5007449;28;45318;-68
2022/08/29 03:44:48;;;;;;;;;1.00;1.00;;;;;21.87;42.19;101281.56;5013510;28;45274;-68
2022/08/29 03:47:14;;;;;;;;;1.50;1.50;;;;;21.87;42.40;101284.28;5012887;28;45295;-68
2022/08/29 03:49:39;;;;;;;;;1.25;1.00;;;;;21.86;41.95;101282.56;5026901;28;47146;-68
2022/08/29 03:52:08;;;;;;;;;2.00;1.00;;;;;21.74;41.86;101268.00;5021342;28;46770;-68
2022/08/29 03:54:33;;;;;;;;;1.50;0.50;;;;;21.87;41.80;101289.72;5019086;28;45379;-69
2022/08/29 03:56:59;;;;;;;;;1.50;1.50;;;;;21.84;42.18;101291.69;5020852;28;45359;-68
2022/08/29 03:59:24;;;;;;;;;0.75;0.50;;;;;21.83;41.87;101294.50;4991003;28;46049;-68
2022/08/29 04:01:50;;;;;;;;;1.00;1.00;;;;;21.81;42.10;101294.59;4996122;28;45444;-68
2022/08/29 04:07:03;;;;;;;;;1.75;1.00;;;;;21.79;42.11;101302.00;5013715;28;45372;-68
2022/08/29 04:09:29;;;;;;;;;1.00;1.00;;;;;21.79;42.59;101302.00;4988071;28;46215;-68
2022/08/29 04:11:55;;;;;;;;;1.25;1.25;;;;;21.79;42.73;101303.88;5016051;28;45209;-68
2022/08/29 04:14:21;;;;;;;;;2.00;1.00;;;;;21.77;42.62;101301.25;4996795;28;45265;-68
2022/08/29 04:16:48;;;;;;;;;2.00;1.00;;;;;21.79;42.57;101307.44;5023773;28;45524;-68
2022/08/29 04:19:17;;;;;;;;;2.25;1.00;;;;;21.76;42.27;101296.78;4999566;28;46381;-68
2022/08/29 04:21:44;;;;;;;;;1.25;1.25;;;;;21.69;42.46;101289.19;5028074;28;45292;-68
2022/08/29 04:24:10;;;;;;;;;1.00;1.00;;;;;21.64;42.82;101290.38;5026587;28;45353;-68
2022/08/29 04:26:36;;;;;;;;;1.00;1.00;;;;;21.71;42.66;101298.97;5026828;28;45254;-68
2022/08/29 04:29:01;;;;;;;;;1.00;1.00;;;;;21.67;42.75;101289.31;5032689;28;45396;-68
2022/08/29 04:31:26;;;;;;;;;2.25;1.00;;;;;21.70;42.38;101293.63;5020704;28;45373;-68
2022/08/29 04:33:52;;;;;;;;;1.75;1.75;;;;;21.68;42.49;101295.59;5030031;28;45436;-68
2022/08/29 04:36:17;;;;;;;;;2.25;2.25;;;;;21.64;42.61;101297.66;5015360;28;45243;-68
2022/08/29 04:38:43;;;;;;;;;1.00;1.00;;;;;21.64;42.13;101303.09;5022011;28;46031;-68
2022/08/29 04:41:13;;;;;;;;;1.00;1.00;;;;;21.59;42.74;101295.25;5025539;28;45357;-68
2022/08/29 04:43:40;;;;;;;;;1.00;1.00;;;;;21.61;42.85;101303.31;5029392;28;45212;-68
2022/08/29 04:46:05;;;;;;;;;2.00;2.00;;;;;21.56;42.40;101302.75;5031118;28;45234;-68
2022/08/29 04:48:30;;;;;;;;;4.00;2.00;;;;;21.56;42.31;101300.03;5005301;28;47163;-68
2022/08/29 04:50:58;;;;;;;;;1.00;1.00;;;;;21.46;42.72;101300.63;5019283;28;45227;-68
2022/08/29 04:53:25;;;;;;;;;2.00;2.00;;;;;21.54;42.85;101312.88;5023849;28;45305;-68
2022/08/29 04:56:09;;;;;;;;;1.75;1.75;;;;;21.51;43.01;101315.78;5026535;28;45326;-68
2022/08/29 04:58:38;;;;;;;;;1.75;1.75;;;;;21.48;42.79;101327.72;5017604;28;45500;-68
2022/08/29 05:01:04;;;;;;;;;1.25;1.25;;;;;21.45;43.12;101323.34;5007835;28;45511;-68
2022/08/29 05:03:30;;;;;;;;;1.75;1.75;;;;;21.44;43.32;101318.88;5016286;28;45372;-68
2022/08/29 05:05:58;;;;;;;;;2.00;1.00;;;;;21.42;42.99;101326.28;5030037;28;45323;-68
2022/08/29 05:08:24;;;;;;;;;1.00;1.00;;;;;21.38;42.87;101335.59;5039948;28;46343;-68
2022/08/29 05:10:50;;;;;;;;;1.00;1.00;;;;;21.36;43.03;101328.56;5035546;28;45422;-68
2022/08/29 05:13:16;;;;;;;;;2.00;2.00;;;;;21.36;42.93;101340.28;4998344;28;45444;-68
2022/08/29 05:15:41;;;;;;;;;2.00;2.00;;;;;21.36;43.02;101340.28;5009742;28;45409;-68
2022/08/29 05:18:06;;;;;;;;;2.00;1.00;;;;;21.31;43.12;101337.00;5016194;28;45572;-68
2022/08/29 05:20:32;;;;;;;;;3.00;1.25;;;;;21.30;43.21;101335.28;5019372;28;54118;-68
2022/08/29 05:22:58;;;;;;;;;1.75;1.75;;;;;21.30;43.48;101335.28;5018740;28;45266;-68
2022/08/29 05:25:24;;;;;;;;;2.00;1.75;;;;;21.22;43.34;101334.94;5019642;28;45512;-68
2022/08/29 05:27:49;;;;;;;;;3.00;3.00;;;;;21.19;43.36;101344.13;5019401;28;46329;-68
2022/08/29 05:30:16;;;;;;;;;2.50;1.25;;;;;21.16;43.47;101346.19;5017318;28;45320;-68
2022/08/29 05:32:41;;;;;;;;;2.00;1.00;;;;;21.14;43.65;101348.16;4995050;28;45539;-68
2022/08/29 05:35:07;;;;;;;;;2.50;2.00;;;;;21.12;43.45;101347.34;5007762;28;45370;-68
2022/08/29 05:37:33;;;;;;;;;0.75;0.75;;;;;21.13;43.15;101349.09;5011338;28;45413;-68
2022/08/29 05:39:58;;;;;;;;;3.00;3.00;;;;;21.14;43.73;101350.88;5019480;28;45381;-68
2022/08/29 05:42:26;;;;;;;;;2.00;2.00;;;;;21.07;43.71;101351.28;5019811;28;45312;-68
2022/08/29 05:44:51;;;;;;;;;2.50;1.50;;;;;21.12;43.76;101364.53;5019369;28;45295;-68
2022/08/29 05:47:19;;;;;;;;;1.75;1.00;;;;;21.03;43.42;101348.84;5019267;28;45423;-68
2022/08/29 05:49:45;;;;;;;;;2.00;2.00;;;;;21.07;44.17;101361.25;5018042;28;45202;-68
2022/08/29 05:52:12;;;;;;;;;1.00;1.00;;;;;21.05;43.36;101357.78;5022193;28;45253;-68
2022/08/29 05:54:39;;;;;;;;;2.00;2.00;;;;;21.04;43.82;101367.75;5010354;28;45532;-68
2022/08/29 05:57:07;;;;;;;;;1.75;1.75;;;;;21.01;43.72;101351.66;5015724;28;46183;-68
2022/08/29 05:59:34;;;;;;;;;5.25;3.50;;;;;21.02;44.08;101369.69;4992063;28;45382;-68
2022/08/29 06:02:00;;;;;;;;;2.00;2.00;;;;;20.94;43.88;101360.34;5004003;28;45328;-68
2022/08/29 06:04:25;;;;;;;;;3.00;2.00;;;;;20.82;43.50;101340.31;5001396;28;45380;-68
2022/08/29 06:06:51;;;;;;;;;1.75;1.50;;;;;20.89;43.72;101364.22;5004484;28;47070;-68
2022/08/29 06:09:16;;;;;;;;;1.25;1.25;;;;;20.93;43.52;101381.16;5017652;28;45346;-68
2022/08/29 06:11:46;;;;;;;;;2.75;2.75;;;;;20.94;43.79;101373.91;5009881;28;45390;-68
2022/08/29 06:14:13;;;;;;;;;2.25;2.00;;;;;20.86;44.27;101366.25;5004299;28;45267;-68
2022/08/29 06:16:38;;;;;;;;;1.75;1.75;;;;;20.94;44.13;101373.91;5003994;28;46012;-68
2022/08/29 06:19:04;;;;;;;;;1.25;0.75;;;;;20.92;43.59;101377.59;5029210;28;45327;-68
2022/08/29 06:21:29;;;;;;;;;2.50;2.00;;;;;20.83;44.03;101369.16;5031236;28;45289;-68
2022/08/29 06:23:55;;;;;;;;;3.25;2.00;;;;;20.87;44.43;101376.16;5027950;28;45226;-68
2022/08/29 06:26:20;;;;;;;;;2.75;1.50;;;;;20.88;44.33;101389.63;5026961;28;46084;-69
2022/08/29 06:28:46;;;;;;;;;3.75;3.75;;;;;20.88;44.61;101388.72;5015075;28;45250;-69
2022/08/29 06:31:16;;;;;;;;;2.50;2.50;;;;;20.90;44.14;101392.25;5009796;28;45601;-76
2022/08/29 06:34:24;;;;;;;;;4.50;3.50;;;;;20.67;44.10;101359.34;5009829;28;45547;-76
2022/08/29 06:36:59;;;;;;;;;2.00;2.00;;;;;20.73;44.01;101366.19;4957759;23;47195;-77
2022/08/29 06:39:24;;;;;;;;;2.00;2.00;;;;;20.65;44.15;101349.56;5021592;28;45467;-77
2022/08/29 06:41:49;;;;;;;;;2.25;2.25;;;;;20.55;44.08;101333.84;5010487;28;45821;-76
2022/08/29 06:44:20;;;;;;;;;4.00;3.00;;;;;20.72;44.28;101372.59;5036980;28;45364;-77
2022/08/29 06:46:48;;;;;;;;;2.00;2.00;;;;;20.70;44.41;101361.84;5000291;28;47004;-76
2022/08/29 06:49:15;;;;;;;;;4.75;3.00;;;;;20.57;43.83;101339.16;5017490;28;45301;-76
2022/08/29 06:51:43;;;;;;;;;3.00;3.00;;;;;20.94;44.49;101393.75;5003217;28;45519;-76
2022/08/29 06:54:12;;;;;;;;;3.00;2.50;;;;;20.96;44.20;101393.66;5019349;28;45490;-76
2022/08/29 06:56:58;;;;;;;;;;;;;;;;;;;;;
2022/08/29 06:59:36;;;;;;;;;;;;;;;;;;;;;
2022/08/29 07:02:07;;;;;;;;;3.25;2.75;;;;;20.80;44.13;101363.94;5012483;28;67755;-75
2022/08/29 07:04:37;;;;;;;;;1.75;1.50;;;;;20.64;44.20;101347.81;4992413;28;45403;-75
2022/08/29 07:07:05;;;;;;;;;2.25;1.50;;;;;20.60;44.42;101346.22;5010556;28;45678;-75
2022/08/29 07:09:40;;;;;;;;;2.25;2.25;;;;;20.92;44.48;101399.28;4992846;28;45439;-77
2022/08/29 07:12:06;;;;;;;;;2.00;2.00;;;;;20.60;44.72;101343.50;5010063;28;45477;-75
2022/08/29 07:14:34;;;;;;;;;1.25;1.25;;;;;20.60;44.25;101347.13;5001029;28;45459;-75
2022/08/29 07:17:12;;;;;;;;;;;;;;;;;;;;;
2022/08/29 07:19:40;;;;;;;;;2.75;2.75;;;;;20.95;44.22;101402.75;4996295;28;71706;-75
2022/08/29 07:22:06;;;;;;;;;3.75;3.00;;;;;20.59;44.16;101341.78;5000090;28;45432;-76
2022/08/29 07:24:59;;;;;;;;;2.25;2.00;;;;;20.66;44.51;101351.28;5130775;27;45561;-75
2022/08/29 07:27:25;;;;;;;;;2.25;2.25;;;;;20.62;44.35;101350.59;5114100;27;45850;-74
2022/08/29 07:29:59;;;;;;;;;1.00;1.00;;;;;20.78;43.99;101369.50;5104598;27;45868;-76
2022/08/29 07:32:33;;;;;;;;;3.00;2.50;;;;;20.65;44.58;101344.16;5105492;27;45400;-73
2022/08/29 07:35:24;;;;;;;;;2.25;2.00;;;;;20.81;44.12;101371.13;5114174;27;46818;-77
2022/08/29 07:37:49;;;;;;;;;3.00;2.00;;;;;20.85;44.96;101375.41;5116202;27;45476;-79
2022/08/29 07:40:18;;;;;;;;;5.00;3.00;;;;;21.01;44.62;101408.66;5112030;27;45494;-81
2022/08/29 07:42:43;;;;;;;;;2.00;2.00;;;;;20.88;44.51;101386.00;5112147;27;45595;-76
2022/08/29 07:45:11;;;;;;;;;4.00;2.50;;;;;20.79;44.03;101364.94;5105384;27;45440;-77
2022/08/29 07:47:37;;;;;;;;;3.75;2.00;;;;;21.03;44.41;101400.41;5120704;27;45476;-77
2022/08/29 07:50:06;;;;;;;;;3.00;2.00;;;;;21.05;44.43;101402.06;5107039;27;45455;-77
2022/08/29 07:52:32;;;;;;;;;2.50;2.00;;;;;20.91;44.68;101362.28;5116244;27;45354;-77
2022/08/29 07:54:58;;;;;;;;;2.00;2.00;;;;;21.09;44.57;101389.16;5111398;27;45489;-78
2022/08/29 07:57:23;;;;;;;;;3.00;2.00;;;;;21.04;44.25;101389.47;5106215;27;45448;-76
2022/08/29 07:59:49;;;;;;;;;2.00;2.00;;;;;20.95;44.53;101370.19;5108361;27;45237;-76
2022/08/29 08:02:15;;;;;;;;;4.00;3.00;;;;;;;;5106638;27;45493;-77
2022/08/29 08:04:41;;;;;;;;;3.25;2.00;;;;;21.18;44.95;101402.09;5098085;27;45622;-77
2022/08/29 08:07:07;;;;;;;;;3.75;2.50;;;;;21.22;44.95;101406.38;5109245;27;45765;-76
2022/08/29 08:09:32;;;;;;;;;3.00;3.00;;;;;21.08;44.28;101368.41;5113169;27;45576;-77
2022/08/29 08:11:57;;;;;;;;;2.00;2.00;;;;;21.12;43.96;101364.53;5112288;27;45483;-77
2022/08/29 08:14:23;;;;;;;;;2.00;2.00;;;;;21.10;43.99;101353.78;5114307;27;46973;-75
2022/08/29 08:16:48;;;;;;;;;3.00;2.75;;;;;21.33;44.00;101381.22;5115119;27;45563;-70
2022/08/29 08:19:15;;;;;;;;;2.50;2.00;;;;;21.43;44.49;101386.88;5115413;27;45448;-69
2022/08/29 08:21:42;;;;;;;;;1.25;1.00;;;;;21.33;44.23;101362.19;5115081;27;45587;-70
2022/08/29 08:24:08;;;;;;;;;2.25;2.00;;;;;21.52;43.75;101389.03;5113483;27;46676;-70
2022/08/29 08:26:33;;;;;;;;;2.25;2.25;;;;;21.47;44.50;101366.75;5115197;27;45475;-72
2022/08/29 08:28:59;;;;;;;;;5.50;5.00;;;;;21.49;43.73;101367.50;5114414;27;45315;-70
2022/08/29 08:31:24;;;;;;;;;3.00;3.00;;;;;21.59;43.70;101384.91;5102670;27;45383;-73
2022/08/29 08:33:51;;;;;;;;;5.50;4.75;;;;;21.56;43.57;101374.25;5113747;27;45413;-74
2022/08/29 08:36:27;;;;;;;;;3.00;3.00;;;;;21.64;43.77;101382.75;5099831;27;45400;-72
2022/08/29 08:38:53;;;;;;;;;4.75;2.25;;;;;21.70;44.15;101383.28;5102031;27;45425;-74
2022/08/29 08:41:21;;;;;;;;;2.50;2.50;;;;;21.75;43.85;101376.56;5100258;27;45802;-74
2022/08/29 08:43:57;;;;;;;;;4.25;4.00;;;;;21.82;44.21;101396.03;5101843;27;45487;-74
2022/08/29 08:46:35;;;;;;;;;6.75;4.75;;;;;21.71;43.40;101352.44;5101150;27;45361;-72
2022/08/29 08:49:07;;;;;;;;;3.25;3.00;;;;;21.92;44.11;101386.25;5100536;27;45576;-73
2022/08/29 08:51:34;;;;;;;;;5.00;3.00;;;;;21.91;44.95;101380.94;5102144;27;45416;-73
2022/08/29 08:54:03;;;;;;;;;5.00;5.00;;;;;21.99;43.58;101379.41;5101209;27;45456;-79
2022/08/29 08:56:34;;;;;;;;;2.00;2.00;;;;;22.09;44.00;101384.22;5100825;27;45699;-74
2022/08/29 08:59:04;;;;;;;;;2.75;2.75;;;;;22.16;44.97;101389.09;5087975;27;45383;-75
2022/08/29 09:01:35;;;;;;;;;8.00;6.00;;;;;22.04;43.97;101353.75;5093864;27;45579;-74
2022/08/29 09:04:24;;;;;;;;;7.25;6.25;;;;;22.29;43.74;101388.25;5095329;27;48351;-75
2022/08/29 09:07:04;;;;;;;;;3.50;3.00;;;;;22.36;43.82;101389.56;5096474;27;45591;-75
2022/08/29 09:10:06;;;;;;;;;4.00;4.00;;;;;22.42;43.92;101389.13;5092093;27;45257;-71
2022/08/29 09:12:57;;;;;;;;;4.00;4.00;;;;;22.48;44.31;101388.66;5099341;27;45526;-71
2022/08/29 09:15:29;;;;;;;;;5.75;3.75;;;;;22.55;43.68;101383.63;5098735;27;46731;-71
2022/08/29 09:18:04;;;;;;;;;3.50;3.50;;;;;22.60;43.60;101389.59;5096942;27;45521;-71
2022/08/29 09:20:33;;;;;;;;;5.00;3.25;;;;;22.65;44.11;101381.13;5100561;27;45270;-71
2022/08/29 09:23:17;;;;;;;;;7.50;4.25;;;;;22.69;44.01;101371.75;5099464;27;47056;-71
2022/08/29 09:25:42;;;;;;;;;4.25;4.00;;;;;22.79;43.12;101380.09;5087934;27;45362;-71
2022/08/29 09:28:08;;;;;;;;;4.00;3.00;;;;;22.79;43.58;101374.66;5100272;27;45336;-71
2022/08/29 09:30:36;;;;;;;;;2.50;2.50;;;;;22.84;43.93;101376.06;5100130;27;45489;-71
2022/08/29 09:33:13;;;;;;;;;5.00;4.00;;;;;22.90;43.41;101385.63;5099588;27;45490;-71
2022/08/29 09:35:48;;;;;;;;;4.50;4.50;;;;;22.86;43.30;101363.19;5086883;27;45594;-71
2022/08/29 09:38:16;;;;;;;;;3.50;3.50;;;;;23.02;43.89;101389.28;5100104;27;45561;-71
2022/08/29 09:40:57;;;;;;;;;4.00;4.00;;;;;23.08;44.16;101367.94;5099704;27;45421;-71
2022/08/29 09:43:22;;;;;;;;;3.25;3.25;;;;;23.16;43.67;101378.25;5099299;27;45621;-71
2022/08/29 09:46:07;;;;;;;;;7.50;6.25;;;;;23.07;43.59;101351.72;5100021;27;46351;-71
2022/08/29 09:48:34;;;;;;;;;3.75;3.00;;;;;23.21;42.69;101362.44;5091646;27;45807;-71
2022/08/29 09:51:24;;;;;;;;;3.50;2.75;;;;;23.31;42.95;101368.91;5097915;27;45433;-71
2022/08/29 09:53:53;;;;;;;;;4.00;4.00;;;;;23.34;43.26;101366.94;5092361;27;45706;-73
2022/08/29 09:56:26;;;;;;;;;3.00;3.00;;;;;23.42;42.97;101370.84;5097536;27;45483;-71
2022/08/29 09:59:10;;;;;;;;;3.00;3.00;;;;;23.42;42.57;101364.50;5085623;27;45727;-71
2022/08/29 10:01:37;;;;;;;;;3.25;3.25;;;;;23.43;42.57;101358.94;5086768;27;45741;-71
2022/08/29 10:04:07;;;;;;;;;4.50;3.00;;;;;23.53;42.52;101370.00;5090844;27;45441;-71
2022/08/29 10:06:39;;;;;;;;;6.50;5.00;;;;;23.57;42.59;101359.72;5099503;27;45804;-71
2022/08/29 10:09:11;;;;;;;;;6.00;4.00;;;;;23.60;43.63;101357.63;5098865;27;45631;-74
2022/08/29 10:11:44;;;;;;;;;4.25;3.25;;;;;23.67;43.07;101350.72;5091024;27;45493;-74
2022/08/29 10:14:16;;;;;;;;;5.25;2.00;;;;;23.72;42.28;101350.34;5081485;27;46067;-75
2022/08/29 10:18:19;;;;;;;;;3.00;3.00;;;;;23.84;42.91;101359.47;5097871;27;45317;-74
2022/08/29 10:19:44;;;;;;;;;4.00;3.25;;;;;23.84;42.79;101349.41;5089418;27;45548;-76
2022/08/29 10:22:28;;;;;;;;;3.50;3.25;;;;;23.93;42.66;101356.00;5097298;27;45583;-74
2022/08/29 10:24:53;;;;;;;;;3.00;3.00;;;;;23.98;42.56;101347.47;5096862;27;45799;-74
2022/08/29 10:27:25;;;;;;;;;3.50;3.50;;;;;24.03;42.39;101350.69;5098940;27;45452;-74
2022/08/29 10:29:55;;;;;;;;;5.75;4.25;;;;;24.07;42.33;101349.44;5099707;27;45456;-75
2022/08/29 10:32:35;;;;;;;;;3.00;3.00;;;;;24.13;42.31;101351.69;5100682;27;45522;-70
2022/08/29 10:35:10;;;;;;;;;3.75;3.00;;;;;24.19;42.80;101358.50;5098084;27;45902;-74
2022/08/29 10:37:48;;;;;;;;;4.75;4.25;;;;;24.27;42.47;101347.81;5101191;27;47478;-74
2022/08/29 10:40:19;;;;;;;;;5.50;4.25;;;;;24.34;42.91;101340.00;5087278;27;45448;-74
2022/08/29 10:42:50;;;;;;;;;5.25;4.00;;;;;24.36;43.02;101338.91;5098261;27;45967;-73
2022/08/29 10:45:27;;;;;;;;;5.25;5.00;;;;;24.32;42.41;101321.03;5099656;27;45475;-73
2022/08/29 10:48:03;;;;;;;;;4.75;3.50;;;;;24.53;41.40;101342.13;5093011;27;46292;-80
2022/08/29 10:50:54;;;;;;;;;4.25;4.00;;;;;24.59;42.48;101347.09;5087735;27;45447;-78
2022/08/29 10:53:33;;;;;;;;;3.75;3.75;;;;;24.56;41.79;101329.13;5088445;27;45718;-79
2022/08/29 10:56:29;;;;;;;;;3.25;3.25;;;;;24.49;41.73;101311.50;5087745;27;45679;-74
2022/08/29 10:59:17;;;;;;;;;7.25;5.25;;;;;24.64;41.61;101322.16;5088496;27;46895;-74
2022/08/29 11:01:45;;;;;;;;;6.75;5.50;;;;;24.74;41.51;101340.38;5082430;27;45826;-74
2022/08/29 11:04:18;;;;;;;;;5.75;5.75;;;;;24.81;41.92;101337.13;5088120;27;45394;-73
2022/08/29 11:06:54;;;;;;;;;5.25;4.25;;;;;24.81;41.11;101339.84;5085303;27;45792;-74
2022/08/29 11:09:37;;;;;;;;;5.00;5.00;;;;;24.87;41.38;101344.81;5089830;27;45696;-75
2022/08/29 11:12:21;;;;;;;;;5.75;4.75;;;;;24.84;40.74;101323.22;5087178;27;45571;-74
2022/08/29 11:14:59;;;;;;;;;5.50;5.50;;;;;24.90;41.15;101328.19;5087088;27;45470;-74
2022/08/29 11:17:32;;;;;;;;;7.75;4.75;;;;;24.91;41.13;101319.00;5082378;27;45444;-74
2022/08/29 11:20:16;;;;;;;;;3.75;3.75;;;;;25.04;41.15;101337.94;5082896;27;46545;-74
2022/08/29 11:23:13;;;;;;;;;4.00;4.00;;;;;25.11;41.56;101333.72;5085222;27;45543;-77
2022/08/29 11:25:40;;;;;;;;;5.50;4.75;;;;;25.14;42.43;101328.84;5083155;27;45441;-74
2022/08/29 11:28:44;;;;;;;;;4.75;4.75;;;;;25.23;41.27;101324.47;5089419;27;45405;-74
2022/08/29 11:31:37;;;;;;;;;6.00;6.00;;;;;25.23;41.77;101319.00;5068712;27;45374;-74
2022/08/29 11:34:44;;;;;;;;;7.00;6.50;;;;;25.35;40.62;101319.84;5085491;27;45682;-74
2022/08/29 11:37:47;;;;;;;;;6.25;6.25;;;;;25.40;41.30;101322.19;5089424;27;45567;-73
2022/08/29 11:40:27;;;;;;;;;7.50;5.25;;;;;25.46;40.83;101322.53;5093160;27;45472;-74
2022/08/29 11:42:54;;;;;;;;;5.25;5.25;;;;;25.48;40.88;101316.91;5082206;27;45702;-74
2022/08/29 11:45:27;;;;;;;;;6.25;5.25;;;;;25.55;40.83;101318.13;5096084;27;45776;-79